createdAt,value
2024-05-09T00:06:37.361Z,1.42
2024-05-09T00:16:42.181Z,1.60
2024-05-09T00:26:49.612Z,1.80
2024-05-09T00:36:54.351Z,1.50
2024-05-09T00:47:02.433Z,1.48
2024-05-09T00:57:08.227Z,1.63
2024-05-09T01:07:16.144Z,1.50
2024-05-09T01:17:21.005Z,1.70
2024-05-09T01:27:28.408Z,1.70
2024-05-09T01:37:33.106Z,1.90
2024-05-09T01:47:40.613Z,1.90
2024-05-09T01:57:45.478Z,1.75
2024-05-09T02:07:52.915Z,2.42
2024-05-09T02:17:57.841Z,2.50
2024-05-09T02:28:05.340Z,2.17
2024-05-09T02:38:11.958Z,1.92
2024-05-09T02:48:19.745Z,1.92
2024-05-09T02:58:24.571Z,2.10
2024-05-09T03:08:32.050Z,2.45
2024-05-09T03:18:37.007Z,2.73
2024-05-09T03:28:44.849Z,3.10
2024-05-09T03:38:50.867Z,2.83
2024-05-09T03:48:58.267Z,2.50
2024-05-09T03:59:03.097Z,2.38
2024-05-09T04:09:10.515Z,2.60
2024-05-09T04:19:15.478Z,2.33
2024-05-09T04:29:23.010Z,2.22
2024-05-09T04:39:27.767Z,2.30
2024-05-09T04:49:35.303Z,2.78
2024-05-09T04:59:40.229Z,3.28
2024-05-09T05:09:47.669Z,2.88
2024-05-09T05:19:52.656Z,3.58
2024-05-09T05:30:00.308Z,3.00
2024-05-09T05:40:05.759Z,3.17
2024-05-09T05:50:23.709Z,3.35
2024-05-09T06:00:38.766Z,3.53
2024-05-09T06:10:47.796Z,4.30
2024-05-09T06:20:52.817Z,3.50
2024-05-09T06:31:00.218Z,3.80
2024-05-09T06:41:05.949Z,2.97
2024-05-09T06:51:13.449Z,2.60
2024-05-09T07:01:18.390Z,2.60
2024-05-09T07:11:26.119Z,2.42
2024-05-09T07:21:32.318Z,3.00
2024-05-09T07:31:39.740Z,2.83
2024-05-09T07:41:44.706Z,2.45
2024-05-09T07:53:21.085Z,2.50
2024-05-09T08:02:17.617Z,2.90
2024-05-09T08:12:25.083Z,2.00
2024-05-09T08:22:32.265Z,1.80
2024-05-09T08:32:39.953Z,1.40
2024-05-09T08:42:50.068Z,1.88
2024-05-09T08:52:57.515Z,1.75
2024-05-09T09:03:02.872Z,1.48
2024-05-09T09:13:11.348Z,1.60
2024-05-09T09:23:16.327Z,1.63
2024-05-09T09:33:23.694Z,1.67
2024-05-09T09:43:29.222Z,1.40
2024-05-09T09:53:38.459Z,1.30
2024-05-09T10:03:45.501Z,1.23
2024-05-09T10:13:55.032Z,1.50
2024-05-09T10:24:00.310Z,1.48
2024-05-09T10:34:10.792Z,1.58
2024-05-09T10:44:18.617Z,1.50
2024-05-09T10:54:26.001Z,1.75
2024-05-09T11:04:30.866Z,1.42
2024-05-09T11:14:38.315Z,1.50
2024-05-09T11:24:43.237Z,1.25
2024-05-09T11:34:50.562Z,1.42
2024-05-09T11:44:55.329Z,1.50
2024-05-09T11:55:02.887Z,1.27
2024-05-09T12:05:08.249Z,1.65
2024-05-09T12:15:15.919Z,1.30
2024-05-09T12:25:20.697Z,1.40
2024-05-09T12:35:28.516Z,1.20
2024-05-09T12:45:33.700Z,1.30
2024-05-09T12:55:48.662Z,1.25
2024-05-09T13:06:01.310Z,1.10
2024-05-09T13:16:09.160Z,1.20
2024-05-09T13:26:13.927Z,1.50
2024-05-09T13:36:21.330Z,1.35
2024-05-09T13:46:26.136Z,1.30
2024-05-09T13:56:33.566Z,1.05
2024-05-09T14:06:38.355Z,1.40
2024-05-09T14:16:46.156Z,1.10
2024-05-09T14:26:50.960Z,1.20
2024-05-09T14:37:04.882Z,0.95
2024-05-09T14:47:10.119Z,1.20
2024-05-09T14:57:17.607Z,1.23
2024-05-09T15:07:22.425Z,1.20
2024-05-09T15:17:30.845Z,1.15
2024-05-09T15:27:35.643Z,1.20
2024-05-09T15:37:43.489Z,1.02
2024-05-09T15:47:48.390Z,1.25
2024-05-09T15:57:55.831Z,1.00
2024-05-09T16:08:00.548Z,1.27
2024-05-09T16:18:08.278Z,1.33
2024-05-09T16:28:13.252Z,1.40
2024-05-09T16:38:20.878Z,1.25
2024-05-09T16:48:25.700Z,1.20
2024-05-09T16:58:33.262Z,1.10
2024-05-09T17:08:38.131Z,1.05
2024-05-09T17:18:54.020Z,1.38
2024-05-09T17:28:59.615Z,1.50
2024-05-09T17:39:07.062Z,1.40
2024-05-09T17:49:11.890Z,1.13
2024-05-09T17:59:19.265Z,1.15
2024-05-09T18:09:23.942Z,1.10
2024-05-09T18:19:31.333Z,1.40
2024-05-09T18:29:36.126Z,1.05
2024-05-09T18:39:43.539Z,1.30
2024-05-09T18:49:48.448Z,1.40
2024-05-09T18:59:56.250Z,1.13
2024-05-09T19:10:01.566Z,1.08
2024-05-09T19:20:20.757Z,2.13
2024-05-09T19:30:38.941Z,1.08
2024-05-09T19:40:49.442Z,1.17
2024-05-09T19:50:55.513Z,1.20
2024-05-09T20:01:03.097Z,1.23
2024-05-09T20:11:08.247Z,1.33
2024-05-09T20:21:15.800Z,2.10
2024-05-09T20:31:25.035Z,1.20
2024-05-09T20:41:35.156Z,1.30
2024-05-09T20:51:41.245Z,1.20
2024-05-09T21:01:49.440Z,1.48
2024-05-09T21:11:54.389Z,1.10
2024-05-09T21:22:01.854Z,0.93
2024-05-09T21:32:06.783Z,1.20
2024-05-09T21:42:14.122Z,1.38
2024-05-09T21:52:19.383Z,1.50
2024-05-09T22:02:26.858Z,1.80
2024-05-09T22:12:31.616Z,1.55
2024-05-09T22:22:39.125Z,1.27
2024-05-09T22:32:43.875Z,1.42
2024-05-09T22:42:51.255Z,1.42
2024-05-09T22:52:55.975Z,1.00
2024-05-09T23:03:03.927Z,1.10
2024-05-09T23:13:09.234Z,1.23
2024-05-09T23:23:16.727Z,1.38
2024-05-09T23:33:21.490Z,1.17
2024-05-09T23:43:28.993Z,1.23
2024-05-09T23:53:33.793Z,1.60
